Time;durP1;ratioP1;P1;durP2;ratioP2;P2;SDS_P1;SDS_P2;PMS_P1;PMS_P2;Temp;Humidity;BMP_temperature;BMP_pressure;BME280_temperature;BME280_humidity;BME280_pressure;Samples;Min_cycle;Max_cycle;Signal;HPM_P1;HPM_P2
2022/10/28 00:00:52;;;;;;;6.18;2.30;;;;;;;14.62;100.00;101846.06;5058092;28;20645;-84
2022/10/28 00:03:18;;;;;;;6.85;2.03;;;;;;;14.46;100.00;101843.97;5051427;28;20388;-83
2022/10/28 00:05:44;;;;;;;7.20;1.48;;;;;;;14.33;100.00;101847.78;5054721;28;20020;-84
2022/10/28 00:08:10;;;;;;;7.70;1.55;;;;;;;14.37;100.00;101849.16;5053961;28;21360;-83
2022/10/28 00:10:35;;;;;;;10.63;1.63;;;;;;;14.48;100.00;101846.47;5055286;28;20041;-83
2022/10/28 00:13:01;;;;;;;4.70;2.22;;;;;;;14.57;100.00;101849.09;5057115;28;20451;-84
2022/10/28 00:15:26;;;;;;;7.93;1.70;;;;;;;14.63;100.00;101850.34;5056963;28;20037;-85
2022/10/28 00:17:52;;;;;;;4.50;1.40;;;;;;;14.64;100.00;101854.63;5052515;28;20037;-84
2022/10/28 00:20:17;;;;;;;4.75;1.45;;;;;;;14.70;100.00;101851.44;5056620;28;20460;-83
2022/10/28 00:22:43;;;;;;;5.60;1.60;;;;;;;14.69;100.00;101848.94;5048844;28;20043;-84
2022/10/28 00:25:09;;;;;;;7.68;1.88;;;;;;;14.65;100.00;101858.88;5052898;28;20136;-85
2022/10/28 00:27:34;;;;;;;3.10;1.77;;;;;;;14.65;100.00;101848.38;5051721;28;20139;-85
2022/10/28 00:30:00;;;;;;;5.72;1.80;;;;;;;14.64;100.00;101857.25;5048949;28;20112;-84
2022/10/28 00:32:29;;;;;;;3.30;1.20;;;;;;;14.77;100.00;101851.72;5037406;28;20029;-85
2022/10/28 00:34:55;;;;;;;4.45;1.60;;;;;;;14.86;100.00;101850.88;5056476;28;20028;-85
2022/10/28 00:37:21;;;;;;;2.92;1.02;;;;;;;15.02;100.00;101852.94;5057355;28;20020;-85
2022/10/28 00:39:46;;;;;;;7.63;1.48;;;;;;;15.07;100.00;101853.38;5044184;28;20473;-85
2022/10/28 00:42:17;;;;;;;4.20;1.50;;;;;;;15.03;100.00;101852.00;5058075;28;20033;-86
2022/10/28 00:44:55;;;;;;;3.72;1.38;;;;;;;14.96;100.00;101851.72;5029191;28;20432;-84
2022/10/28 00:47:36;;;;;;;4.68;1.25;;;;;;;14.96;100.00;101849.09;5055056;28;20140;-86
2022/10/28 00:50:29;;;;;;;10.70;1.70;;;;;;;14.93;100.00;101852.81;5041018;28;20147;-86
2022/10/28 00:52:59;;;;;;;5.38;1.67;;;;;;;14.88;100.00;101852.41;5049739;28;20459;-85
2022/10/28 00:55:25;;;;;;;6.00;1.50;;;;;;;14.86;100.00;101846.47;5042938;28;20040;-85
2022/10/28 00:57:55;;;;;;;10.38;1.77;;;;;;;14.88;100.00;101854.19;5046767;28;20036;-87
2022/10/28 01:00:22;;;;;;;6.57;1.55;;;;;;;14.89;100.00;101848.81;5038426;28;20392;-87
2022/10/28 01:02:49;;;;;;;8.05;1.45;;;;;;;14.94;100.00;101848.41;5045632;28;20142;-84
2022/10/28 01:05:23;;;;;;;6.43;1.67;;;;;;;14.89;100.00;101845.34;5038670;28;20029;-86
2022/10/28 01:07:50;;;;;;;9.15;2.45;;;;;;;14.89;100.00;101847.97;5030073;28;20436;-84
2022/10/28 01:10:16;;;;;;;4.60;1.83;;;;;;;14.86;100.00;101841.22;5053310;28;20051;-86
2022/10/28 01:12:56;;;;;;;5.35;1.20;;;;;;;14.93;100.00;101831.81;5039757;28;20547;-87
2022/10/28 01:16:12;;;;;;;3.95;2.00;;;;;;;14.93;100.00;101834.44;5053386;28;20024;-86
2022/10/28 01:19:18;;;;;;;5.47;1.52;;;;;;;14.83;100.00;101831.00;4943896;28;20625;-86
2022/10/28 01:22:01;;;;;;;4.50;1.33;;;;;;;14.71;100.00;101826.03;4924808;29;20047;-86
2022/10/28 01:25:01;;;;;;;5.90;1.63;;;;;;;14.65;100.00;101827.41;4923581;29;20514;-86
2022/10/28 01:27:33;;;;;;;6.35;1.50;;;;;;;14.59;100.00;101822.72;4924108;29;20115;-86
2022/10/28 01:30:11;;;;;;;7.13;2.10;;;;;;;14.53;100.00;101823.28;4917460;29;20028;-87
2022/10/28 01:33:04;;;;;;;2.55;1.30;;;;;;;14.43;100.00;101827.69;4923668;29;20040;-85
2022/10/28 01:35:50;;;;;;;5.13;1.65;;;;;;;14.43;100.00;101814.56;4924105;29;20383;-85
2022/10/28 01:38:48;;;;;;;7.55;1.67;;;;;;;14.38;100.00;101819.38;4922487;29;20507;-85
2022/10/28 01:41:25;;;;;;;5.75;1.73;;;;;;;14.34;100.00;101815.34;4912566;29;20063;-85
2022/10/28 01:43:53;;;;;;;2.10;1.55;;;;;;;14.28;100.00;101817.56;4926948;29;20032;-85
2022/10/28 01:46:33;;;;;;;4.80;1.60;;;;;;;14.23;100.00;101821.53;4925989;29;20447;-85
2022/10/28 01:49:07;;;;;;;4.10;1.40;;;;;;;14.20;100.00;101814.78;4927124;29;20118;-85
2022/10/28 01:51:54;;;;;;;2.50;1.58;;;;;;;14.20;100.00;101817.41;4931774;29;20054;-87
2022/10/28 01:54:26;;;;;;;4.55;1.55;;;;;;;14.20;100.00;101833.13;4979315;28;20132;-85
2022/10/28 01:56:54;;;;;;;9.35;1.38;;;;;;;14.19;100.00;101831.47;5012581;28;20545;-87
2022/10/28 01:59:23;;;;;;;6.35;1.85;;;;;;;14.16;100.00;101831.75;5056597;28;20113;-87
2022/10/28 02:01:49;;;;;;;6.28;1.70;;;;;;;14.16;100.00;101831.75;5046178;28;20108;-87
2022/10/28 02:04:14;;;;;;;6.20;1.70;;;;;;;14.09;100.00;101832.44;5046742;28;20113;-86
2022/10/28 02:06:43;;;;;;;4.68;1.75;;;;;;;14.08;100.00;101826.34;5037299;28;20111;-86
2022/10/28 02:09:46;;;;;;;7.15;1.10;;;;;;;14.07;100.00;101823.88;5057092;28;20350;-86
2022/10/28 02:12:30;;;;;;;2.83;1.45;;;;;;;13.98;100.00;101817.63;5033217;28;20040;-86
2022/10/28 02:15:05;;;;;;;5.97;1.60;;;;;;;14.06;100.00;101830.91;5038876;28;20055;-84
2022/10/28 02:17:48;;;;;;;4.28;1.48;;;;;;;14.18;100.00;101818.50;5047580;28;20104;-84
2022/10/28 02:20:32;;;;;;;5.18;1.65;;;;;;;14.25;100.00;101817.81;5050250;28;20040;-83
2022/10/28 02:23:15;;;;;;;7.95;1.80;;;;;;;14.24;100.00;101826.66;5051229;28;20055;-85
2022/10/28 02:25:50;;;;;;;4.72;1.35;;;;;;;14.23;100.00;101827.59;5049747;28;20033;-86
2022/10/28 02:28:23;;;;;;;2.58;1.25;;;;;;;14.21;100.00;101831.34;5056853;28;20032;-85
2022/10/28 02:31:01;;;;;;;5.43;1.80;;;;;;;14.20;100.00;101830.50;5055313;28;20327;-85
2022/10/28 02:33:30;;;;;;;4.45;1.30;;;;;;;14.21;100.00;101824.28;5042735;28;20036;-85
2022/10/28 02:36:15;;;;;;;4.13;1.58;;;;;;;14.16;100.00;101828.31;5046326;28;20025;-85
2022/10/28 02:38:48;;;;;;;4.63;1.40;;;;;;;14.13;100.00;101828.59;5037191;28;20021;-85
2022/10/28 02:41:29;;;;;;;10.43;1.60;;;;;;;14.10;100.00;101827.06;5052638;28;20144;-85
2022/10/28 02:43:59;;;;;;;3.45;1.27;;;;;;;14.11;100.00;101823.47;5047792;28;20032;-86
2022/10/28 02:46:27;;;;;;;3.13;1.50;;;;;;;14.12;100.00;101826.91;5062688;28;20035;-86
2022/10/28 02:48:58;;;;;;;5.20;1.00;;;;;;;14.16;100.00;101821.28;5052693;28;20099;-85
2022/10/28 02:51:35;;;;;;;3.88;1.42;;;;;;;14.25;100.00;101825.69;5048635;28;20024;-86
2022/10/28 02:54:14;;;;;;;6.40;1.50;;;;;;;14.41;100.00;101829.56;5038885;28;20376;-87
2022/10/28 02:57:06;;;;;;;5.22;2.42;;;;;;;14.40;100.00;101822.69;5053796;28;20025;-84
2022/10/28 02:59:32;;;;;;;8.90;2.03;;;;;;;14.34;100.00;101825.84;5029702;28;20060;-86
2022/10/28 03:01:57;;;;;;;3.80;1.60;;;;;;;14.38;100.00;101822.81;5058383;28;20040;-86
2022/10/28 03:04:23;;;;;;;4.60;1.27;;;;;;;14.35;100.00;101822.25;5061172;28;20105;-88
2022/10/28 03:06:48;;;;;;;6.13;1.45;;;;;;;14.34;100.00;101825.84;5036380;28;20112;-86
2022/10/28 03:09:14;;;;;;;3.67;1.50;;;;;;;14.41;100.00;101824.34;5044070;28;20037;-86
2022/10/28 03:11:39;;;;;;;4.95;2.22;;;;;;;14.39;100.00;101832.34;5043505;28;20040;-86
2022/10/28 03:14:05;;;;;;;5.22;1.65;;;;;;;14.32;100.00;101825.16;5040516;28;20076;-86
2022/10/28 03:16:30;;;;;;;5.15;1.65;;;;;;;14.22;100.00;101825.94;5038386;28;20025;-85
2022/10/28 03:18:55;;;;;;;3.88;1.05;;;;;;;14.19;100.00;101828.84;5012449;28;20106;-86
2022/10/28 03:21:21;;;;;;;7.03;1.27;;;;;;;14.14;100.00;101828.44;5041163;28;20112;-86
2022/10/28 03:23:46;;;;;;;6.55;1.38;;;;;;;14.06;100.00;101825.66;5034678;28;20104;-84
2022/10/28 03:26:12;;;;;;;6.72;1.30;;;;;;;14.03;100.00;101823.31;5037168;28;20130;-84
2022/10/28 03:28:37;;;;;;;3.70;1.55;;;;;;;13.99;100.00;101823.72;5041777;28;20403;-85
2022/10/28 03:31:03;;;;;;;5.00;1.30;;;;;;;13.95;100.00;101828.38;5030414;28;20026;-86
2022/10/28 03:33:29;;;;;;;5.20;1.50;;;;;;;13.87;100.00;101834.28;5033060;28;20397;-85
2022/10/28 03:35:54;;;;;;;5.70;1.70;;;;;;;13.82;100.00;101822.53;5035483;28;20032;-86
2022/10/28 03:38:19;;;;;;;8.82;1.77;;;;;;;13.80;100.00;101822.69;5016264;28;20052;-86
2022/10/28 03:40:49;;;;;;;6.28;1.83;;;;;;;13.91;100.00;101822.56;5034445;28;20037;-86
2022/10/28 03:43:15;;;;;;;4.65;1.95;;;;;;;14.01;100.00;101811.31;5018483;28;20171;-86
2022/10/28 03:45:41;;;;;;;5.00;1.60;;;;;;;14.08;100.00;101813.25;5025938;28;20026;-85
2022/10/28 03:48:06;;;;;;;5.95;1.67;;;;;;;14.18;100.00;101815.88;5033143;28;20034;-85
2022/10/28 03:50:32;;;;;;;11.80;1.77;;;;;;;14.29;100.00;101806.09;5031498;28;20475;-86
2022/10/28 03:52:58;;;;;;;11.10;1.60;;;;;;;14.31;100.00;101808.59;5029187;28;20029;-88
2022/10/28 03:55:24;;;;;;;4.10;1.58;;;;;;;14.28;100.00;101801.81;5008415;28;20029;-86
2022/10/28 03:57:50;;;;;;;4.72;1.05;;;;;;;14.26;100.00;101810.78;5025408;28;20049;-87
2022/10/28 04:00:16;;;;;;;5.43;1.40;;;;;;;14.25;100.00;101809.97;5027138;28;20057;-87
2022/10/28 04:02:41;;;;;;;3.17;1.48;;;;;;;14.24;100.00;101808.31;5008274;28;20025;-86
2022/10/28 04:05:07;;;;;;;2.85;1.55;;;;;;;14.11;100.00;101813.00;5007830;28;20044;-86
2022/10/28 04:07:33;;;;;;;3.03;1.40;;;;;;;13.96;100.00;101809.09;5035798;28;20036;-86
2022/10/28 04:09:59;;;;;;;7.20;2.00;;;;;;;13.89;100.00;101821.06;5036104;28;20554;-86
2022/10/28 04:12:24;;;;;;;2.97;1.40;;;;;;;13.81;100.00;101810.41;5031187;28;20025;-85
2022/10/28 04:14:49;;;;;;;6.03;1.42;;;;;;;13.72;100.00;101812.03;5036130;28;20053;-86
2022/10/28 04:17:15;;;;;;;5.82;1.45;;;;;;;13.66;100.00;101812.59;5046434;28;20619;-85
2022/10/28 04:19:40;;;;;;;6.28;1.67;;;;;;;13.64;100.00;101819.75;5034875;28;20104;-85
2022/10/28 04:22:06;;;;;;;5.80;1.52;;;;;;;13.63;100.00;101817.25;5042516;28;20029;-86
2022/10/28 04:24:32;;;;;;;3.55;2.00;;;;;;;13.61;100.00;101809.53;5062116;28;20115;-85
2022/10/28 04:26:57;;;;;;;4.88;1.90;;;;;;;13.62;100.00;101805.94;5046483;28;20122;-84
2022/10/28 04:29:23;;;;;;;5.45;1.70;;;;;;;13.59;100.00;101807.03;5050540;28;20044;-85
2022/10/28 04:31:48;;;;;;;6.22;1.63;;;;;;;13.59;100.00;101817.50;5027172;28;20025;-85
2022/10/28 04:34:13;;;;;;;6.88;1.35;;;;;;;13.63;100.00;101815.47;5050407;28;20091;-84
2022/10/28 04:36:39;;;;;;;10.32;2.00;;;;;;;13.63;100.00;101815.47;5049618;28;20067;-84
2022/10/28 04:39:04;;;;;;;4.78;1.10;;;;;;;13.57;100.00;101818.59;5052773;28;20070;-84
2022/10/28 04:41:30;;;;;;;4.03;1.20;;;;;;;13.52;100.00;101815.53;5047654;28;20115;-84
2022/10/28 04:43:55;;;;;;;8.07;1.58;;;;;;;13.60;100.00;101811.31;5036002;28;20033;-84
2022/10/28 04:46:21;;;;;;;5.03;1.95;;;;;;;13.67;100.00;101814.25;5034117;28;20052;-84
2022/10/28 04:48:47;;;;;;;4.40;1.48;;;;;;;13.73;100.00;101811.06;5053478;28;20024;-84
2022/10/28 04:51:12;;;;;;;3.70;1.38;;;;;;;13.79;100.00;101804.47;5050910;28;20034;-84
2022/10/28 04:53:38;;;;;;;5.13;1.42;;;;;;;13.78;100.00;101805.44;5035735;28;20406;-85
2022/10/28 04:56:03;;;;;;;4.97;1.20;;;;;;;13.77;100.00;101809.00;5053748;28;20094;-84
2022/10/28 04:58:29;;;;;;;2.67;1.58;;;;;;;13.76;100.00;101804.72;5051186;28;20105;-85
2022/10/28 05:00:54;;;;;;;4.07;1.65;;;;;;;13.79;100.00;101807.09;5049211;28;20036;-85
2022/10/28 05:03:20;;;;;;;2.45;1.25;;;;;;;13.83;100.00;101803.25;5032497;28;20071;-85
2022/10/28 05:05:46;;;;;;;5.53;1.55;;;;;;;13.83;100.00;101805.88;5048693;28;20036;-84
2022/10/28 05:08:11;;;;;;;8.23;1.48;;;;;;;13.78;100.00;101810.66;5053924;28;20057;-85
2022/10/28 05:10:37;;;;;;;6.32;1.55;;;;;;;13.74;100.00;101801.41;5048041;28;20182;-85
2022/10/28 05:13:02;;;;;;;7.22;1.27;;;;;;;13.69;100.00;101796.59;5042859;28;20128;-85
2022/10/28 05:15:30;;;;;;;4.68;1.30;;;;;;;13.65;100.00;101797.00;5049576;28;20466;-86
2022/10/28 05:17:55;;;;;;;3.35;1.63;;;;;;;13.67;100.00;101792.47;5050285;28;20423;-88
2022/10/28 05:20:21;;;;;;;4.35;1.30;;;;;;;13.64;100.00;101787.47;5049633;28;20032;-86
2022/10/28 05:22:48;;;;;;;6.93;2.20;;;;;;;13.64;100.00;101782.25;5032104;28;20025;-87
2022/10/28 05:25:14;;;;;;;9.23;2.40;;;;;;;13.69;100.00;101778.28;5040782;28;20036;-84
2022/10/28 05:27:39;;;;;;;7.50;2.00;;;;;;;13.77;100.00;101777.56;5047597;28;20032;-85
2022/10/28 05:30:06;;;;;;;10.43;2.08;;;;;;;13.86;100.00;101777.63;5037785;28;20152;-84
2022/10/28 05:32:31;;;;;;;4.10;1.58;;;;;;;13.98;100.00;101780.94;5041149;28;20035;-85
2022/10/28 05:34:57;;;;;;;3.88;1.55;;;;;;;14.03;100.00;101778.75;5048909;28;20440;-86
2022/10/28 05:37:22;;;;;;;7.50;1.92;;;;;;;14.01;100.00;101779.84;5034305;28;20021;-85
2022/10/28 05:39:47;;;;;;;3.55;1.42;;;;;;;13.91;100.00;101795.56;5033087;28;20029;-86
2022/10/28 05:42:13;;;;;;;9.85;2.17;;;;;;;13.85;100.00;101788.22;5037118;28;20478;-86
2022/10/28 05:44:38;;;;;;;3.00;1.50;;;;;;;13.85;100.00;101798.69;5064823;28;20086;-86
2022/10/28 05:47:04;;;;;;;8.50;1.33;;;;;;;13.81;100.00;101797.31;5050309;28;20029;-86
2022/10/28 05:49:29;;;;;;;8.90;1.60;;;;;;;13.75;100.00;101796.03;5033048;28;20119;-86
2022/10/28 05:51:55;;;;;;;5.10;1.40;;;;;;;13.73;100.00;101797.97;5051146;28;20464;-86
2022/10/28 05:54:20;;;;;;;4.43;1.50;;;;;;;13.73;100.00;101807.63;5052077;28;20021;-86
2022/10/28 05:56:45;;;;;;;12.23;1.52;;;;;;;13.63;100.00;101801.53;5061936;28;20032;-85
2022/10/28 05:59:11;;;;;;;3.53;1.65;;;;;;;13.54;100.00;101803.16;5060729;28;20044;-86
2022/10/28 06:01:38;;;;;;;3.05;1.50;;;;;;;13.47;100.00;101813.31;5033782;28;20120;-86
2022/10/28 06:04:04;;;;;;;8.95;1.25;;;;;;;13.47;100.00;101815.94;5039037;28;20032;-86
2022/10/28 06:06:29;;;;;;;5.30;1.67;;;;;;;13.46;100.00;101816.88;5030641;28;20033;-85
2022/10/28 06:08:55;;;;;;;7.32;1.50;;;;;;;13.48;100.00;101825.44;5028446;28;20052;-85
2022/10/28 06:11:20;;;;;;;3.65;1.13;;;;;;;13.47;100.00;101822.97;5049606;28;20047;-84
2022/10/28 06:13:46;;;;;;;3.15;1.17;;;;;;;13.47;100.00;101823.78;5043065;28;20048;-84
2022/10/28 06:16:11;;;;;;;3.67;1.20;;;;;;;13.50;100.00;101825.31;5027962;28;20052;-84
2022/10/28 06:18:37;;;;;;;7.68;1.63;;;;;;;13.55;100.00;101821.34;5046429;28;20036;-85
2022/10/28 06:21:03;;;;;;;8.00;1.52;;;;;;;13.63;100.00;101825.09;5028154;28;20032;-86
2022/10/28 06:23:29;;;;;;;8.25;2.05;;;;;;;13.71;100.00;101820.00;5060653;28;20025;-85
2022/10/28 06:26:02;;;;;;;11.20;1.65;;;;;;;13.74;100.00;101831.06;5042523;28;20453;-85
2022/10/28 06:28:28;;;;;;;8.32;1.55;;;;;;;13.78;100.00;101832.47;5051933;28;20051;-84
2022/10/28 06:30:59;;;;;;;7.20;1.67;;;;;;;13.77;100.00;101829.97;5058152;28;20036;-84
2022/10/28 06:33:26;;;;;;;9.73;1.55;;;;;;;13.80;100.00;101834.94;5046289;28;20070;-87
2022/10/28 06:35:56;;;;;;;6.38;1.80;;;;;;;13.83;100.00;101843.38;5026591;28;20125;-84
2022/10/28 06:38:21;;;;;;;10.38;1.33;;;;;;;13.87;100.00;101852.63;5042478;28;20464;-83
2022/10/28 06:40:46;;;;;;;2.65;1.13;;;;;;;13.90;100.00;101846.28;5047168;28;20032;-83
2022/10/28 06:43:13;;;;;;;2.50;1.40;;;;;;;13.89;100.00;101839.41;5031586;28;20160;-83
2022/10/28 06:45:38;;;;;;;10.48;1.27;;;;;;;13.87;100.00;101844.75;5044112;28;20356;-84
2022/10/28 06:48:04;;;;;;;5.97;1.30;;;;;;;13.89;100.00;101844.63;5047518;28;20033;-85
2022/10/28 06:50:31;;;;;;;10.18;1.33;;;;;;;13.87;100.00;101843.94;5047137;28;20027;-85
2022/10/28 06:52:57;;;;;;;6.28;1.45;;;;;;;13.85;100.00;101848.47;5045863;28;20041;-85
2022/10/28 06:55:24;;;;;;;4.75;1.67;;;;;;;13.86;100.00;101853.59;5049006;28;20352;-84
2022/10/28 06:57:49;;;;;;;5.82;1.20;;;;;;;13.93;100.00;101862.56;5055612;28;20043;-83
2022/10/28 07:00:15;;;;;;;4.47;1.30;;;;;;;14.06;100.00;101857.13;5047503;28;20387;-85
2022/10/28 07:02:40;;;;;;;3.35;1.10;;;;;;;14.17;100.00;101856.19;5030162;28;20481;-84
2022/10/28 07:05:06;;;;;;;8.88;1.45;;;;;;;14.24;100.00;101855.47;5048747;28;20029;-84
2022/10/28 07:07:32;;;;;;;3.80;1.30;;;;;;;14.31;100.00;101854.94;5047972;28;20033;-85
2022/10/28 07:09:58;;;;;;;6.50;1.20;;;;;;;14.36;100.00;101863.25;5032006;28;20647;-83
2022/10/28 07:12:23;;;;;;;7.68;1.33;;;;;;;14.43;100.00;101867.00;5053175;28;20047;-84
2022/10/28 07:14:49;;;;;;;4.65;0.98;;;;;;;14.45;100.00;101862.47;5029695;28;20669;-85
2022/10/28 07:17:14;;;;;;;6.50;1.35;;;;;;;14.45;100.00;101860.66;5043572;28;20033;-85
2022/10/28 07:19:40;;;;;;;2.75;1.10;;;;;;;14.50;100.00;101857.66;5040370;28;20049;-83
2022/10/28 07:22:05;;;;;;;4.03;1.58;;;;;;;14.57;100.00;101864.00;5028731;28;20033;-84
2022/10/28 07:24:30;;;;;;;5.65;1.10;;;;;;;14.70;100.00;101864.53;5030679;28;20025;-83
2022/10/28 07:26:56;;;;;;;6.03;0.93;;;;;;;14.77;100.00;101857.78;5049151;28;20108;-83
2022/10/28 07:29:21;;;;;;;5.82;1.20;;;;;;;14.82;100.00;101868.69;5046951;28;20056;-84
2022/10/28 07:31:47;;;;;;;4.32;1.00;;;;;;;14.91;100.00;101862.63;5044823;28;20029;-83
2022/10/28 07:34:12;;;;;;;3.53;0.80;;;;;;;15.08;100.00;101866.34;5028530;28;20021;-80
2022/10/28 07:36:38;;;;;;;3.00;0.68;;;;;;;15.18;100.00;101861.88;5047266;28;20033;-80
2022/10/28 07:39:03;;;;;;;4.40;1.40;;;;;;;15.14;100.00;101860.50;5028545;28;20124;-82
2022/10/28 07:41:29;;;;;;;5.88;1.27;;;;;;;15.11;100.00;101855.56;5044497;28;20041;-82
2022/10/28 07:43:54;;;;;;;7.82;0.90;;;;;;;15.18;100.00;101863.69;5044132;28;20455;-83
2022/10/28 07:46:20;;;;;;;4.32;0.85;;;;;;;15.32;100.00;101865.88;5051007;28;20029;-82
2022/10/28 07:48:45;;;;;;;8.18;1.05;;;;;;;15.42;100.00;101864.06;5048127;28;20091;-84
2022/10/28 07:51:13;;;;;;;10.13;1.88;;;;;;;15.49;100.00;101869.59;5044505;28;20139;-83
2022/10/28 07:53:39;;;;;;;4.60;1.00;;;;;;;15.59;100.00;101876.50;5027521;28;20048;-82
2022/10/28 07:56:12;;;;;;;9.50;0.98;;;;;;;15.66;100.00;101870.66;5028622;28;20025;-86
2022/10/28 07:58:38;;;;;;;7.22;1.35;;;;;;;15.64;100.00;101865.53;5056479;28;20032;-81
2022/10/28 08:01:06;;;;;;;12.15;1.15;;;;;;;15.66;100.00;101870.66;5045533;28;20115;-85
2022/10/28 08:03:32;;;;;;;5.57;1.17;;;;;;;15.65;100.00;101861.94;5045526;28;20419;-83
2022/10/28 08:06:02;;;;;;;4.45;1.50;;;;;;;15.70;99.75;101864.13;5028827;28;20036;-83
2022/10/28 08:08:28;;;;;;;9.80;1.88;;;;;;;15.75;100.00;101868.00;5043904;28;20025;-81
2022/10/28 08:10:53;;;;;;;7.82;1.30;;;;;;;15.79;100.00;101863.28;5027367;28;20037;-81
2022/10/28 08:13:19;;;;;;;4.75;1.25;;;;;;;15.83;98.88;101864.66;5055264;28;20048;-83
2022/10/28 08:15:51;;;;;;;6.45;1.30;;;;;;;15.82;98.95;101871.69;5045344;28;20025;-83
2022/10/28 08:18:16;;;;;;;11.80;1.80;;;;;;;15.84;100.00;101861.03;5042456;28;20032;-84
2022/10/28 08:20:42;;;;;;;6.82;1.17;;;;;;;15.83;100.00;101862.84;5048432;28;20132;-83
2022/10/28 08:23:07;;;;;;;5.65;0.95;;;;;;;15.98;100.00;101863.19;5046901;28;20037;-82
2022/10/28 08:25:32;;;;;;;7.10;1.20;;;;;;;16.09;100.00;101860.34;5046736;28;20017;-83
2022/10/28 08:27:58;;;;;;;3.10;0.82;;;;;;;16.16;99.67;101858.78;5048572;28;20043;-83
2022/10/28 08:30:23;;;;;;;4.43;0.90;;;;;;;16.25;99.28;101857.09;5042814;28;20032;-84
2022/10/28 08:32:48;;;;;;;6.80;1.13;;;;;;;16.33;98.64;101857.19;5049319;28;20017;-84
2022/10/28 08:35:14;;;;;;;2.92;0.90;;;;;;;16.39;98.42;101853.97;5049092;28;20029;-82
2022/10/28 08:37:39;;;;;;;5.25;1.23;;;;;;;16.42;99.09;101855.47;5046847;28;20050;-82
2022/10/28 08:40:06;;;;;;;5.85;0.98;;;;;;;16.46;98.74;101862.09;5030582;28;20103;-83
2022/10/28 08:42:38;;;;;;;1.50;0.60;;;;;;;16.56;97.99;101852.31;5042399;28;20507;-82
2022/10/28 08:45:13;;;;;;;8.52;1.42;;;;;;;16.62;95.42;101850.88;5055013;28;20041;-80
2022/10/28 08:47:57;;;;;;;4.97;1.15;;;;;;;16.65;97.77;101848.81;5048093;28;20075;-82
2022/10/28 08:50:26;;;;;;;7.05;0.80;;;;;;;16.82;95.83;101855.88;5052087;28;20044;-83
2022/10/28 08:53:00;;;;;;;2.78;1.08;;;;;;;16.92;95.61;101855.78;5048804;28;20447;-81
2022/10/28 08:55:38;;;;;;;3.03;0.57;;;;;;;17.18;91.78;101855.81;5048857;28;20227;-83
2022/10/28 08:58:10;;;;;;;2.45;0.40;;;;;;;17.25;92.44;101851.59;5047590;28;20032;-82
2022/10/28 09:00:36;;;;;;;4.95;0.80;;;;;;;17.23;94.18;101856.19;5044679;28;20534;-82
2022/10/28 09:03:10;;;;;;;4.63;0.90;;;;;;;17.29;91.46;101850.28;5057201;28;20025;-80
2022/10/28 09:05:36;;;;;;;3.13;0.73;;;;;;;17.30;94.42;101853.75;5048438;28;20024;-82
2022/10/28 09:08:03;;;;;;;3.78;0.85;;;;;;;17.38;93.90;101854.63;5049843;28;20319;-81
2022/10/28 09:11:09;;;;;;;7.97;1.30;;;;;;;17.50;89.69;101855.19;5047834;28;20511;-82
2022/10/28 09:13:53;;;;;;;5.35;1.05;;;;;;;17.53;90.44;101863.59;5054722;28;20061;-82
2022/10/28 09:16:23;;;;;;;5.93;0.82;;;;;;;17.63;92.30;101862.66;5047999;28;20471;-81
2022/10/28 09:18:55;;;;;;;4.47;0.80;;;;;;;17.64;92.83;101861.69;5049347;28;20476;-81
2022/10/28 09:21:29;;;;;;;4.97;0.70;;;;;;;17.58;92.88;101860.50;5049378;28;20033;-82
2022/10/28 09:23:57;;;;;;;2.40;0.70;;;;;;;17.66;92.72;101859.75;5047548;28;20032;-81
2022/10/28 09:26:36;;;;;;;5.90;0.80;;;;;;;17.84;88.20;101865.78;5047282;28;20041;-82
2022/10/28 09:29:29;;;;;;;7.60;0.80;;;;;;;17.94;87.73;101863.03;5052553;28;20029;-85
2022/10/28 09:32:10;;;;;;;3.70;0.60;;;;;;;17.94;89.35;101858.59;5049537;28;20149;-83
2022/10/28 09:34:42;;;;;;;3.22;1.30;;;;;;;18.02;90.60;101857.75;5029865;28;20373;-81
2022/10/28 09:37:10;;;;;;;2.75;0.68;;;;;;;18.11;90.38;101860.28;5048771;28;20506;-83
2022/10/28 09:39:44;;;;;;;3.00;0.65;;;;;;;18.00;90.69;101863.19;5048251;28;20033;-83
2022/10/28 09:42:19;;;;;;;3.42;0.85;;;;;;;17.99;90.27;101861.53;5046705;28;20025;-81
2022/10/28 09:44:50;;;;;;;2.40;0.50;;;;;;;18.00;89.88;101860.56;5051556;28;20033;-82
2022/10/28 09:47:21;;;;;;;7.85;0.80;;;;;;;18.11;90.62;101862.91;5050814;28;20271;-83
2022/10/28 09:49:49;;;;;;;4.47;0.80;;;;;;;18.07;91.15;101866.03;5045727;28;20033;-80
2022/10/28 09:52:18;;;;;;;2.25;0.60;;;;;;;18.20;90.12;101856.69;5048213;28;20021;-83
2022/10/28 09:54:48;;;;;;;4.50;0.82;;;;;;;18.19;90.07;101857.66;5047788;28;20115;-82
2022/10/28 09:57:14;;;;;;;5.00;0.70;;;;;;;18.20;90.86;101851.41;5047549;28;20029;-82
2022/10/28 09:59:39;;;;;;;6.43;0.77;;;;;;;18.12;91.06;101855.81;5047104;28;20032;-82
2022/10/28 10:02:24;;;;;;;6.80;0.80;;;;;;;18.04;90.53;101850.50;5046000;28;20099;-82
2022/10/28 10:04:49;;;;;;;3.92;0.80;;;;;;;18.18;91.55;101849.91;5047635;28;20025;-83
2022/10/28 10:07:31;;;;;;;5.45;0.70;;;;;;;18.21;91.12;101853.06;5043692;28;20028;-83
2022/10/28 10:09:59;;;;;;;5.57;0.95;;;;;;;18.27;91.39;101848.94;5046938;28;20029;-82
2022/10/28 10:12:26;;;;;;;3.20;0.47;;;;;;;18.26;91.76;101842.03;5048624;28;20031;-82
2022/10/28 10:14:55;;;;;;;4.00;0.50;;;;;;;18.19;92.51;101846.28;5030129;28;20073;-83
2022/10/28 10:17:26;;;;;;;5.38;0.65;;;;;;;18.20;93.68;101848.75;5028741;28;20036;-81
2022/10/28 10:19:59;;;;;;;3.67;0.57;;;;;;;18.21;92.73;101844.31;5027486;28;20136;-83
2022/10/28 10:22:33;;;;;;;3.72;0.63;;;;;;;18.35;91.31;101848.97;5034467;28;20056;-82
2022/10/28 10:24:59;;;;;;;2.80;1.10;;;;;;;18.40;92.23;101841.41;5013800;28;20384;-82
2022/10/28 10:27:26;;;;;;;4.75;0.60;;;;;;;18.46;91.62;101837.25;5028787;28;20324;-83
2022/10/28 10:29:53;;;;;;;5.20;0.70;;;;;;;18.51;92.29;101834.97;5038554;28;20131;-83
2022/10/28 10:32:24;;;;;;;3.38;0.63;;;;;;;18.42;93.15;101838.59;5028816;28;20095;-84
2022/10/28 10:35:00;;;;;;;3.35;1.00;;;;;;;18.39;93.66;101841.56;5029266;28;20279;-83
2022/10/28 10:37:27;;;;;;;6.85;0.70;;;;;;;18.43;93.58;101835.75;5028962;28;20137;-85
2022/10/28 10:40:05;;;;;;;2.53;0.85;;;;;;;18.57;91.74;101844.88;5010758;28;20040;-81
2022/10/28 10:42:32;;;;;;;2.90;0.75;;;;;;;18.79;90.32;101838.97;5023128;28;20064;-81
2022/10/28 10:45:02;;;;;;;5.28;0.70;;;;;;;18.99;89.29;101835.97;5035433;28;20116;-83
2022/10/28 10:47:27;;;;;;;2.03;0.80;;;;;;;19.10;88.33;101835.66;5027295;28;20076;-81
2022/10/28 10:50:23;;;;;;;2.78;0.50;;;;;;;19.23;84.38;101841.25;5027498;28;20060;-82
2022/10/28 10:52:54;;;;;;;4.17;1.43;;;;;;;19.26;84.79;101834.81;5028390;28;20029;-83
2022/10/28 10:55:28;;;;;;;5.05;0.50;;;;;;;19.30;86.00;101830.84;5025973;28;20283;-81
2022/10/28 10:57:54;;;;;;;1.70;0.50;;;;;;;19.26;87.21;101825.06;5028189;28;20029;-84
2022/10/28 11:00:22;;;;;;;2.85;0.77;;;;;;;19.20;87.85;101825.72;5026865;28;20060;-81
2022/10/28 11:02:48;;;;;;;5.47;0.50;;;;;;;19.16;87.95;101825.25;5028301;28;20029;-83
2022/10/28 11:05:21;;;;;;;5.68;0.77;;;;;;;19.18;87.06;101828.53;5028182;28;20428;-83
2022/10/28 11:07:49;;;;;;;8.95;0.73;;;;;;;19.30;86.31;101822.91;5027889;28;20055;-81
2022/10/28 11:10:27;;;;;;;1.45;0.68;;;;;;;19.27;86.49;101818.78;5026968;28;20033;-81
2022/10/28 11:12:54;;;;;;;2.50;0.57;;;;;;;19.24;87.06;101813.84;5034565;28;20389;-81
2022/10/28 11:15:24;;;;;;;4.50;0.60;;;;;;;19.34;85.39;101816.28;5047805;28;20492;-81
2022/10/28 11:18:02;;;;;;;6.35;0.50;;;;;;;19.46;83.43;101814.91;5047509;28;20033;-83
2022/10/28 11:20:37;;;;;;;2.80;0.60;;;;;;;19.54;83.42;101813.09;5047481;28;20039;-83
2022/10/28 11:23:37;;;;;;;2.88;0.52;;;;;;;19.78;78.85;101798.16;5046360;28;20441;-83
2022/10/28 11:26:08;;;;;;;3.13;0.70;;;;;;;19.85;81.42;101799.09;5038740;28;20439;-83
2022/10/28 11:28:45;;;;;;;3.30;0.60;;;;;;;19.83;81.86;101799.28;5051510;28;20047;-82
2022/10/28 11:31:34;;;;;;;3.40;0.50;;;;;;;19.84;81.99;101795.66;5046260;28;20076;-82